sensor_id;sensor_type;location;lat;lon;timestamp;P1;durP1;ratioP1;P2;durP2;ratioP2
19919;SDS011;10122;50.074;19.920;2023-02-28T00:00:18;19.93;;;8.07;;
19919;SDS011;10122;50.074;19.920;2023-02-28T00:02:44;19.57;;;8.90;;
19919;SDS011;10122;50.074;19.920;2023-02-28T00:05:11;16.77;;;7.90;;
19919;SDS011;10122;50.074;19.920;2023-02-28T00:07:39;16.97;;;8.10;;
19919;SDS011;10122;50.074;19.920;2023-02-28T00:10:05;19.90;;;8.67;;
19919;SDS011;10122;50.074;19.920;2023-02-28T00:12:35;19.80;;;7.53;;
19919;SDS011;10122;50.074;19.920;2023-02-28T00:15:02;17.27;;;7.87;;
19919;SDS011;10122;50.074;19.920;2023-02-28T00:17:31;14.93;;;6.07;;
19919;SDS011;10122;50.074;19.920;2023-02-28T00:19:57;11.27;;;5.67;;
19919;SDS011;10122;50.074;19.920;2023-02-28T00:22:35;16.00;;;6.73;;
19919;SDS011;10122;50.074;19.920;2023-02-28T00:25:01;18.50;;;7.20;;
19919;SDS011;10122;50.074;19.920;2023-02-28T00:27:28;15.93;;;6.57;;
19919;SDS011;10122;50.074;19.920;2023-02-28T00:29:54;14.50;;;6.47;;
19919;SDS011;10122;50.074;19.920;2023-02-28T00:32:20;15.50;;;6.93;;
19919;SDS011;10122;50.074;19.920;2023-02-28T00:34:46;18.60;;;7.63;;
19919;SDS011;10122;50.074;19.920;2023-02-28T00:37:12;15.63;;;6.97;;
19919;SDS011;10122;50.074;19.920;2023-02-28T00:39:38;14.17;;;6.70;;
19919;SDS011;10122;50.074;19.920;2023-02-28T00:42:04;11.47;;;5.87;;
19919;SDS011;10122;50.074;19.920;2023-02-28T00:44:31;14.77;;;6.30;;
19919;SDS011;10122;50.074;19.920;2023-02-28T00:46:57;13.40;;;5.63;;
19919;SDS011;10122;50.074;19.920;2023-02-28T00:49:23;13.13;;;5.97;;
19919;SDS011;10122;50.074;19.920;2023-02-28T00:51:49;12.83;;;5.90;;
19919;SDS011;10122;50.074;19.920;2023-02-28T00:54:16;14.10;;;6.10;;
19919;SDS011;10122;50.074;19.920;2023-02-28T00:56:42;11.43;;;5.80;;
19919;SDS011;10122;50.074;19.920;2023-02-28T00:59:07;10.83;;;5.50;;
19919;SDS011;10122;50.074;19.920;2023-02-28T01:01:33;13.60;;;6.00;;
19919;SDS011;10122;50.074;19.920;2023-02-28T01:04:00;13.00;;;6.17;;
19919;SDS011;10122;50.074;19.920;2023-02-28T01:06:25;12.13;;;6.17;;
19919;SDS011;10122;50.074;19.920;2023-02-28T01:08:52;13.97;;;6.30;;
19919;SDS011;10122;50.074;19.920;2023-02-28T01:11:18;14.67;;;6.73;;
19919;SDS011;10122;50.074;19.920;2023-02-28T01:13:44;15.00;;;6.63;;
19919;SDS011;10122;50.074;19.920;2023-02-28T01:16:11;14.97;;;6.70;;
19919;SDS011;10122;50.074;19.920;2023-02-28T01:18:38;14.13;;;6.90;;
19919;SDS011;10122;50.074;19.920;2023-02-28T01:21:08;14.90;;;6.70;;
19919;SDS011;10122;50.074;19.920;2023-02-28T01:23:36;12.43;;;6.73;;
19919;SDS011;10122;50.074;19.920;2023-02-28T01:26:05;14.13;;;6.77;;
19919;SDS011;10122;50.074;19.920;2023-02-28T01:28:32;13.40;;;6.57;;
19919;SDS011;10122;50.074;19.920;2023-02-28T01:30:59;14.73;;;6.70;;
19919;SDS011;10122;50.074;19.920;2023-02-28T01:33:25;13.57;;;6.77;;
19919;SDS011;10122;50.074;19.920;2023-02-28T01:35:57;17.37;;;7.43;;
19919;SDS011;10122;50.074;19.920;2023-02-28T01:38:26;15.70;;;7.23;;
19919;SDS011;10122;50.074;19.920;2023-02-28T01:40:52;16.07;;;7.43;;
19919;SDS011;10122;50.074;19.920;2023-02-28T01:43:28;15.53;;;7.47;;
19919;SDS011;10122;50.074;19.920;2023-02-28T01:45:56;17.30;;;7.10;;
19919;SDS011;10122;50.074;19.920;2023-02-28T01:48:24;16.03;;;7.83;;
19919;SDS011;10122;50.074;19.920;2023-02-28T01:50:53;16.90;;;7.60;;
19919;SDS011;10122;50.074;19.920;2023-02-28T01:53:26;16.97;;;7.93;;
19919;SDS011;10122;50.074;19.920;2023-02-28T01:55:58;13.33;;;7.63;;
19919;SDS011;10122;50.074;19.920;2023-02-28T01:58:25;16.33;;;7.60;;
19919;SDS011;10122;50.074;19.920;2023-02-28T02:00:50;14.43;;;7.40;;
19919;SDS011;10122;50.074;19.920;2023-02-28T02:03:17;15.67;;;7.40;;
19919;SDS011;10122;50.074;19.920;2023-02-28T02:05:44;16.47;;;7.30;;
19919;SDS011;10122;50.074;19.920;2023-02-28T02:08:15;14.37;;;7.57;;
19919;SDS011;10122;50.074;19.920;2023-02-28T02:10:50;13.90;;;6.73;;
19919;SDS011;10122;50.074;19.920;2023-02-28T02:31:05;19.13;;;9.00;;
19919;SDS011;10122;50.074;19.920;2023-02-28T02:36:21;17.87;;;8.37;;
19919;SDS011;10122;50.074;19.920;2023-02-28T02:38:56;19.97;;;8.77;;
19919;SDS011;10122;50.074;19.920;2023-02-28T02:41:48;20.17;;;9.03;;
19919;SDS011;10122;50.074;19.920;2023-02-28T02:44:24;18.87;;;9.03;;
19919;SDS011;10122;50.074;19.920;2023-02-28T02:47:10;21.17;;;9.40;;
19919;SDS011;10122;50.074;19.920;2023-02-28T02:49:42;19.33;;;9.50;;
19919;SDS011;10122;50.074;19.920;2023-02-28T02:52:13;23.90;;;9.93;;
19919;SDS011;10122;50.074;19.920;2023-02-28T02:54:43;23.73;;;9.60;;
19919;SDS011;10122;50.074;19.920;2023-02-28T02:57:29;24.97;;;10.53;;
19919;SDS011;10122;50.074;19.920;2023-02-28T03:00:22;26.50;;;10.97;;
19919;SDS011;10122;50.074;19.920;2023-02-28T03:02:51;25.77;;;11.20;;
19919;SDS011;10122;50.074;19.920;2023-02-28T03:05:23;21.70;;;10.20;;
19919;SDS011;10122;50.074;19.920;2023-02-28T03:07:51;26.53;;;11.43;;
19919;SDS011;10122;50.074;19.920;2023-02-28T03:10:37;26.60;;;10.73;;
19919;SDS011;10122;50.074;19.920;2023-02-28T03:13:14;28.07;;;11.20;;
19919;SDS011;10122;50.074;19.920;2023-02-28T03:27:30;25.47;;;11.07;;
19919;SDS011;10122;50.074;19.920;2023-02-28T03:32:34;24.03;;;10.60;;
19919;SDS011;10122;50.074;19.920;2023-02-28T03:35:16;25.27;;;10.50;;
19919;SDS011;10122;50.074;19.920;2023-02-28T03:37:49;21.63;;;10.37;;
19919;SDS011;10122;50.074;19.920;2023-02-28T03:40:25;22.70;;;10.53;;
19919;SDS011;10122;50.074;19.920;2023-02-28T03:42:56;21.63;;;8.83;;
19919;SDS011;10122;50.074;19.920;2023-02-28T03:45:31;21.90;;;10.27;;
19919;SDS011;10122;50.074;19.920;2023-02-28T03:48:09;22.60;;;10.80;;
19919;SDS011;10122;50.074;19.920;2023-02-28T03:50:41;25.70;;;10.63;;
19919;SDS011;10122;50.074;19.920;2023-02-28T03:55:49;25.23;;;11.07;;
19919;SDS011;10122;50.074;19.920;2023-02-28T04:00:56;22.40;;;10.80;;
19919;SDS011;10122;50.074;19.920;2023-02-28T04:03:34;19.47;;;10.30;;
19919;SDS011;10122;50.074;19.920;2023-02-28T04:06:01;23.90;;;10.57;;
19919;SDS011;10122;50.074;19.920;2023-02-28T04:08:27;23.87;;;10.57;;
19919;SDS011;10122;50.074;19.920;2023-02-28T04:10:58;22.00;;;11.50;;
19919;SDS011;10122;50.074;19.920;2023-02-28T04:13:28;22.40;;;9.80;;
19919;SDS011;10122;50.074;19.920;2023-02-28T04:15:54;23.83;;;10.50;;
19919;SDS011;10122;50.074;19.920;2023-02-28T04:18:19;22.20;;;9.87;;
19919;SDS011;10122;50.074;19.920;2023-02-28T04:20:45;23.50;;;11.50;;
19919;SDS011;10122;50.074;19.920;2023-02-28T04:23:11;24.33;;;11.50;;
19919;SDS011;10122;50.074;19.920;2023-02-28T04:25:36;21.87;;;11.23;;
19919;SDS011;10122;50.074;19.920;2023-02-28T04:28:02;23.43;;;10.33;;
19919;SDS011;10122;50.074;19.920;2023-02-28T04:30:28;23.43;;;10.40;;
19919;SDS011;10122;50.074;19.920;2023-02-28T04:32:54;25.10;;;11.40;;
19919;SDS011;10122;50.074;19.920;2023-02-28T04:35:20;23.50;;;11.53;;
19919;SDS011;10122;50.074;19.920;2023-02-28T04:37:45;23.57;;;11.63;;
19919;SDS011;10122;50.074;19.920;2023-02-28T04:40:11;25.57;;;11.60;;
19919;SDS011;10122;50.074;19.920;2023-02-28T04:42:37;25.77;;;12.23;;
19919;SDS011;10122;50.074;19.920;2023-02-28T04:45:03;26.27;;;11.60;;
19919;SDS011;10122;50.074;19.920;2023-02-28T04:47:29;26.53;;;11.13;;
19919;SDS011;10122;50.074;19.920;2023-02-28T04:49:55;25.43;;;12.37;;
19919;SDS011;10122;50.074;19.920;2023-02-28T04:52:21;22.50;;;11.73;;
19919;SDS011;10122;50.074;19.920;2023-02-28T04:54:47;25.13;;;11.97;;
19919;SDS011;10122;50.074;19.920;2023-02-28T04:57:13;25.83;;;11.97;;
19919;SDS011;10122;50.074;19.920;2023-02-28T04:59:39;24.33;;;11.87;;
19919;SDS011;10122;50.074;19.920;2023-02-28T05:02:04;26.73;;;12.63;;
19919;SDS011;10122;50.074;19.920;2023-02-28T05:04:34;29.03;;;12.43;;
19919;SDS011;10122;50.074;19.920;2023-02-28T05:07:00;24.93;;;11.67;;
19919;SDS011;10122;50.074;19.920;2023-02-28T05:09:26;28.37;;;12.87;;
19919;SDS011;10122;50.074;19.920;2023-02-28T05:11:53;29.07;;;12.77;;
19919;SDS011;10122;50.074;19.920;2023-02-28T05:14:19;27.57;;;11.57;;
19919;SDS011;10122;50.074;19.920;2023-02-28T05:16:45;27.07;;;12.77;;
19919;SDS011;10122;50.074;19.920;2023-02-28T05:19:10;27.33;;;12.83;;
19919;SDS011;10122;50.074;19.920;2023-02-28T05:21:40;27.77;;;12.47;;
19919;SDS011;10122;50.074;19.920;2023-02-28T05:24:13;23.10;;;10.27;;
19919;SDS011;10122;50.074;19.920;2023-02-28T05:26:39;26.17;;;11.63;;
19919;SDS011;10122;50.074;19.920;2023-02-28T05:29:07;23.87;;;11.33;;
19919;SDS011;10122;50.074;19.920;2023-02-28T05:31:33;24.37;;;11.30;;
19919;SDS011;10122;50.074;19.920;2023-02-28T05:33:59;26.93;;;12.50;;
19919;SDS011;10122;50.074;19.920;2023-02-28T05:36:25;26.00;;;13.17;;
19919;SDS011;10122;50.074;19.920;2023-02-28T05:38:51;27.10;;;12.77;;
19919;SDS011;10122;50.074;19.920;2023-02-28T05:41:17;25.53;;;12.13;;
19919;SDS011;10122;50.074;19.920;2023-02-28T05:43:45;26.57;;;11.47;;
19919;SDS011;10122;50.074;19.920;2023-02-28T05:46:12;26.33;;;12.70;;
19919;SDS011;10122;50.074;19.920;2023-02-28T05:48:39;26.43;;;12.73;;
19919;SDS011;10122;50.074;19.920;2023-02-28T05:51:05;24.03;;;11.87;;
19919;SDS011;10122;50.074;19.920;2023-02-28T05:53:32;25.83;;;12.13;;
19919;SDS011;10122;50.074;19.920;2023-02-28T05:55:58;25.37;;;12.13;;
19919;SDS011;10122;50.074;19.920;2023-02-28T05:58:24;24.43;;;12.60;;
19919;SDS011;10122;50.074;19.920;2023-02-28T06:00:54;24.83;;;11.97;;
19919;SDS011;10122;50.074;19.920;2023-02-28T06:03:20;22.33;;;10.37;;
19919;SDS011;10122;50.074;19.920;2023-02-28T06:05:46;22.83;;;11.83;;
19919;SDS011;10122;50.074;19.920;2023-02-28T06:08:12;23.13;;;12.00;;
19919;SDS011;10122;50.074;19.920;2023-02-28T06:10:38;26.23;;;11.60;;
19919;SDS011;10122;50.074;19.920;2023-02-28T06:13:04;22.57;;;11.47;;
19919;SDS011;10122;50.074;19.920;2023-02-28T06:15:30;18.70;;;8.50;;
19919;SDS011;10122;50.074;19.920;2023-02-28T06:17:56;22.73;;;9.43;;
19919;SDS011;10122;50.074;19.920;2023-02-28T06:20:23;28.00;;;12.00;;
19919;SDS011;10122;50.074;19.920;2023-02-28T06:22:49;25.00;;;11.73;;
19919;SDS011;10122;50.074;19.920;2023-02-28T06:25:16;24.87;;;10.80;;
19919;SDS011;10122;50.074;19.920;2023-02-28T06:27:43;24.77;;;10.70;;
19919;SDS011;10122;50.074;19.920;2023-02-28T06:30:09;22.57;;;11.27;;
19919;SDS011;10122;50.074;19.920;2023-02-28T06:32:36;23.13;;;12.23;;
19919;SDS011;10122;50.074;19.920;2023-02-28T06:35:02;27.53;;;12.73;;
19919;SDS011;10122;50.074;19.920;2023-02-28T06:37:30;25.43;;;12.77;;
19919;SDS011;10122;50.074;19.920;2023-02-28T06:39:56;25.10;;;12.00;;
19919;SDS011;10122;50.074;19.920;2023-02-28T06:42:23;23.40;;;12.00;;
19919;SDS011;10122;50.074;19.920;2023-02-28T06:44:54;25.10;;;12.37;;
19919;SDS011;10122;50.074;19.920;2023-02-28T06:47:20;23.80;;;12.60;;
19919;SDS011;10122;50.074;19.920;2023-02-28T06:49:47;28.00;;;13.77;;
19919;SDS011;10122;50.074;19.920;2023-02-28T06:52:13;28.10;;;13.27;;
19919;SDS011;10122;50.074;19.920;2023-02-28T06:54:40;26.17;;;13.57;;
19919;SDS011;10122;50.074;19.920;2023-02-28T06:57:06;28.80;;;13.50;;
19919;SDS011;10122;50.074;19.920;2023-02-28T06:59:32;29.17;;;14.37;;
19919;SDS011;10122;50.074;19.920;2023-02-28T07:01:58;27.67;;;13.73;;
19919;SDS011;10122;50.074;19.920;2023-02-28T07:04:24;30.83;;;14.33;;
19919;SDS011;10122;50.074;19.920;2023-02-28T07:06:49;27.60;;;14.23;;
19919;SDS011;10122;50.074;19.920;2023-02-28T07:09:15;32.53;;;14.47;;
19919;SDS011;10122;50.074;19.920;2023-02-28T07:11:41;28.53;;;14.40;;
19919;SDS011;10122;50.074;19.920;2023-02-28T07:14:08;30.93;;;14.23;;
19919;SDS011;10122;50.074;19.920;2023-02-28T07:16:34;29.70;;;14.47;;
19919;SDS011;10122;50.074;19.920;2023-02-28T07:19:00;31.30;;;13.90;;
19919;SDS011;10122;50.074;19.920;2023-02-28T07:21:26;29.13;;;14.63;;
19919;SDS011;10122;50.074;19.920;2023-02-28T07:23:52;23.87;;;12.00;;
19919;SDS011;10122;50.074;19.920;2023-02-28T07:26:18;29.93;;;13.53;;
19919;SDS011;10122;50.074;19.920;2023-02-28T07:28:46;32.47;;;14.90;;
19919;SDS011;10122;50.074;19.920;2023-02-28T07:31:13;33.87;;;15.30;;
19919;SDS011;10122;50.074;19.920;2023-02-28T07:33:39;30.97;;;15.07;;
19919;SDS011;10122;50.074;19.920;2023-02-28T07:36:07;31.50;;;14.93;;
19919;SDS011;10122;50.074;19.920;2023-02-28T07:38:43;27.87;;;13.63;;
19919;SDS011;10122;50.074;19.920;2023-02-28T07:41:10;34.43;;;15.63;;
19919;SDS011;10122;50.074;19.920;2023-02-28T07:43:35;29.30;;;14.33;;
19919;SDS011;10122;50.074;19.920;2023-02-28T07:46:03;29.13;;;14.73;;
19919;SDS011;10122;50.074;19.920;2023-02-28T07:48:29;27.83;;;12.10;;
19919;SDS011;10122;50.074;19.920;2023-02-28T07:50:55;27.57;;;13.27;;
19919;SDS011;10122;50.074;19.920;2023-02-28T07:53:22;22.40;;;11.33;;
19919;SDS011;10122;50.074;19.920;2023-02-28T07:55:48;20.53;;;10.27;;
19919;SDS011;10122;50.074;19.920;2023-02-28T07:58:13;20.20;;;10.10;;
19919;SDS011;10122;50.074;19.920;2023-02-28T08:00:39;22.10;;;9.43;;
19919;SDS011;10122;50.074;19.920;2023-02-28T08:03:05;17.53;;;8.67;;
19919;SDS011;10122;50.074;19.920;2023-02-28T08:05:31;18.40;;;8.17;;
19919;SDS011;10122;50.074;19.920;2023-02-28T08:07:56;18.23;;;8.70;;
19919;SDS011;10122;50.074;19.920;2023-02-28T08:10:22;17.53;;;8.73;;
19919;SDS011;10122;50.074;19.920;2023-02-28T08:12:48;18.60;;;8.07;;
19919;SDS011;10122;50.074;19.920;2023-02-28T08:15:15;19.47;;;9.10;;
19919;SDS011;10122;50.074;19.920;2023-02-28T08:17:40;17.47;;;8.67;;
19919;SDS011;10122;50.074;19.920;2023-02-28T08:20:06;14.90;;;6.83;;
19919;SDS011;10122;50.074;19.920;2023-02-28T08:22:34;14.90;;;6.90;;
19919;SDS011;10122;50.074;19.920;2023-02-28T08:24:59;19.57;;;9.07;;
19919;SDS011;10122;50.074;19.920;2023-02-28T08:27:25;16.83;;;7.90;;
19919;SDS011;10122;50.074;19.920;2023-02-28T08:29:50;15.43;;;7.40;;
19919;SDS011;10122;50.074;19.920;2023-02-28T08:32:16;15.27;;;6.97;;
19919;SDS011;10122;50.074;19.920;2023-02-28T08:34:42;15.67;;;6.67;;
19919;SDS011;10122;50.074;19.920;2023-02-28T08:37:07;11.90;;;6.20;;
19919;SDS011;10122;50.074;19.920;2023-02-28T08:39:34;12.77;;;6.43;;
19919;SDS011;10122;50.074;19.920;2023-02-28T08:42:00;9.60;;;4.30;;
19919;SDS011;10122;50.074;19.920;2023-02-28T08:44:27;17.13;;;6.30;;
19919;SDS011;10122;50.074;19.920;2023-02-28T08:46:53;11.43;;;5.50;;
19919;SDS011;10122;50.074;19.920;2023-02-28T08:49:18;13.27;;;5.97;;
19919;SDS011;10122;50.074;19.920;2023-02-28T08:51:44;10.33;;;4.80;;
19919;SDS011;10122;50.074;19.920;2023-02-28T08:54:10;10.27;;;5.80;;
19919;SDS011;10122;50.074;19.920;2023-02-28T08:56:40;10.17;;;5.13;;
19919;SDS011;10122;50.074;19.920;2023-02-28T08:59:08;7.87;;;4.20;;
19919;SDS011;10122;50.074;19.920;2023-02-28T09:01:34;6.73;;;3.40;;
19919;SDS011;10122;50.074;19.920;2023-02-28T09:04:01;10.70;;;5.20;;
19919;SDS011;10122;50.074;19.920;2023-02-28T09:06:27;9.47;;;4.40;;
19919;SDS011;10122;50.074;19.920;2023-02-28T09:08:56;7.03;;;3.67;;
19919;SDS011;10122;50.074;19.920;2023-02-28T09:11:26;10.97;;;5.00;;
19919;SDS011;10122;50.074;19.920;2023-02-28T09:13:53;4.80;;;2.77;;
19919;SDS011;10122;50.074;19.920;2023-02-28T09:16:20;7.77;;;4.07;;
19919;SDS011;10122;50.074;19.920;2023-02-28T09:18:47;7.50;;;4.07;;
19919;SDS011;10122;50.074;19.920;2023-02-28T09:21:14;10.30;;;5.30;;
19919;SDS011;10122;50.074;19.920;2023-02-28T09:23:42;9.47;;;5.20;;
19919;SDS011;10122;50.074;19.920;2023-02-28T09:26:13;8.17;;;4.73;;
19919;SDS011;10122;50.074;19.920;2023-02-28T09:28:40;9.37;;;4.80;;
19919;SDS011;10122;50.074;19.920;2023-02-28T09:31:06;10.37;;;5.17;;
19919;SDS011;10122;50.074;19.920;2023-02-28T09:33:36;12.03;;;5.43;;
19919;SDS011;10122;50.074;19.920;2023-02-28T09:36:02;8.10;;;3.87;;
19919;SDS011;10122;50.074;19.920;2023-02-28T09:38:28;10.83;;;4.93;;
19919;SDS011;10122;50.074;19.920;2023-02-28T09:40:56;9.23;;;4.70;;
19919;SDS011;10122;50.074;19.920;2023-02-28T09:43:25;11.47;;;5.73;;
19919;SDS011;10122;50.074;19.920;2023-02-28T09:46:40;9.50;;;4.80;;
19919;SDS011;10122;50.074;19.920;2023-02-28T09:49:07;11.40;;;5.17;;
19919;SDS011;10122;50.074;19.920;2023-02-28T09:51:40;8.80;;;4.83;;
19919;SDS011;10122;50.074;19.920;2023-02-28T09:54:20;8.23;;;4.18;;
19919;SDS011;10122;50.074;19.920;2023-02-28T09:56:49;7.80;;;4.40;;
19919;SDS011;10122;50.074;19.920;2023-02-28T10:02:09;7.00;;;4.17;;
19919;SDS011;10122;50.074;19.920;2023-02-28T10:07:33;10.90;;;5.25;;
19919;SDS011;10122;50.074;19.920;2023-02-28T10:10:20;9.68;;;5.20;;
19919;SDS011;10122;50.074;19.920;2023-02-28T10:12:53;8.32;;;4.35;;
19919;SDS011;10122;50.074;19.920;2023-02-28T10:15:24;8.60;;;4.60;;
19919;SDS011;10122;50.074;19.920;2023-02-28T10:18:00;10.05;;;5.50;;
19919;SDS011;10122;50.074;19.920;2023-02-28T10:20:35;9.00;;;5.35;;
19919;SDS011;10122;50.074;19.920;2023-02-28T10:23:10;9.98;;;4.97;;
19919;SDS011;10122;50.074;19.920;2023-02-28T10:25:57;12.82;;;6.57;;
19919;SDS011;10122;50.074;19.920;2023-02-28T10:28:26;9.63;;;5.13;;
19919;SDS011;10122;50.074;19.920;2023-02-28T10:30:54;10.10;;;6.07;;
19919;SDS011;10122;50.074;19.920;2023-02-28T10:33:25;9.93;;;6.20;;
19919;SDS011;10122;50.074;19.920;2023-02-28T10:35:56;9.60;;;5.15;;
19919;SDS011;10122;50.074;19.920;2023-02-28T10:38:23;10.75;;;6.35;;
19919;SDS011;10122;50.074;19.920;2023-02-28T10:40:51;12.60;;;6.63;;
19919;SDS011;10122;50.074;19.920;2023-02-28T10:43:27;7.63;;;5.25;;
19919;SDS011;10122;50.074;19.920;2023-02-28T10:45:55;10.07;;;6.28;;
19919;SDS011;10122;50.074;19.920;2023-02-28T10:48:30;10.63;;;5.82;;
19919;SDS011;10122;50.074;19.920;2023-02-28T10:50:59;11.93;;;6.38;;
19919;SDS011;10122;50.074;19.920;2023-02-28T10:53:59;10.50;;;5.78;;
19919;SDS011;10122;50.074;19.920;2023-02-28T11:01:19;8.77;;;5.45;;
19919;SDS011;10122;50.074;19.920;2023-02-28T11:03:47;10.75;;;6.30;;
19919;SDS011;10122;50.074;19.920;2023-02-28T11:06:17;11.10;;;6.20;;
19919;SDS011;10122;50.074;19.920;2023-02-28T11:09:02;9.98;;;5.65;;
19919;SDS011;10122;50.074;19.920;2023-02-28T11:11:44;10.13;;;5.78;;
19919;SDS011;10122;50.074;19.920;2023-02-28T11:14:30;10.55;;;5.80;;
19919;SDS011;10122;50.074;19.920;2023-02-28T11:17:11;10.05;;;6.05;;
19919;SDS011;10122;50.074;19.920;2023-02-28T11:19:47;9.05;;;5.10;;
19919;SDS011;10122;50.074;19.920;2023-02-28T11:22:17;9.45;;;4.75;;
19919;SDS011;10122;50.074;19.920;2023-02-28T11:24:50;9.10;;;4.93;;
19919;SDS011;10122;50.074;19.920;2023-02-28T11:29:56;10.52;;;6.03;;
19919;SDS011;10122;50.074;19.920;2023-02-28T11:32:23;10.27;;;5.80;;
19919;SDS011;10122;50.074;19.920;2023-02-28T11:35:01;12.02;;;6.13;;
19919;SDS011;10122;50.074;19.920;2023-02-28T11:37:36;11.18;;;6.20;;
19919;SDS011;10122;50.074;19.920;2023-02-28T11:40:16;9.77;;;5.70;;
19919;SDS011;10122;50.074;19.920;2023-02-28T11:57:14;10.18;;;5.97;;
19919;SDS011;10122;50.074;19.920;2023-02-28T12:00:02;8.90;;;4.55;;
19919;SDS011;10122;50.074;19.920;2023-02-28T12:02:50;11.80;;;6.22;;
19919;SDS011;10122;50.074;19.920;2023-02-28T12:05:39;11.35;;;6.40;;
19919;SDS011;10122;50.074;19.920;2023-02-28T12:11:09;10.75;;;5.97;;
19919;SDS011;10122;50.074;19.920;2023-02-28T12:16:53;8.80;;;5.55;;
19919;SDS011;10122;50.074;19.920;2023-02-28T12:27:11;9.05;;;5.50;;
19919;SDS011;10122;50.074;19.920;2023-02-28T12:32:27;9.82;;;5.90;;
19919;SDS011;10122;50.074;19.920;2023-02-28T12:35:23;9.40;;;5.70;;
19919;SDS011;10122;50.074;19.920;2023-02-28T12:37:55;10.75;;;5.70;;
19919;SDS011;10122;50.074;19.920;2023-02-28T12:40:23;9.95;;;6.10;;
19919;SDS011;10122;50.074;19.920;2023-02-28T12:42:52;10.30;;;6.28;;
19919;SDS011;10122;50.074;19.920;2023-02-28T12:45:24;11.23;;;6.32;;
19919;SDS011;10122;50.074;19.920;2023-02-28T12:47:55;9.75;;;5.80;;
19919;SDS011;10122;50.074;19.920;2023-02-28T12:50:26;9.93;;;6.28;;
19919;SDS011;10122;50.074;19.920;2023-02-28T12:58:17;10.30;;;5.32;;
19919;SDS011;10122;50.074;19.920;2023-02-28T13:11:25;9.35;;;5.72;;
19919;SDS011;10122;50.074;19.920;2023-02-28T13:14:06;10.73;;;6.10;;
19919;SDS011;10122;50.074;19.920;2023-02-28T13:19:22;10.10;;;6.13;;
19919;SDS011;10122;50.074;19.920;2023-02-28T13:21:55;10.98;;;6.20;;
19919;SDS011;10122;50.074;19.920;2023-02-28T13:24:56;12.07;;;6.20;;
19919;SDS011;10122;50.074;19.920;2023-02-28T13:30:02;10.80;;;6.05;;
19919;SDS011;10122;50.074;19.920;2023-02-28T13:33:25;10.13;;;6.43;;
19919;SDS011;10122;50.074;19.920;2023-02-28T13:38:54;9.80;;;6.45;;
19919;SDS011;10122;50.074;19.920;2023-02-28T13:44:07;11.30;;;6.55;;
19919;SDS011;10122;50.074;19.920;2023-02-28T13:51:54;9.85;;;6.13;;
19919;SDS011;10122;50.074;19.920;2023-02-28T14:00:28;11.57;;;6.40;;
19919;SDS011;10122;50.074;19.920;2023-02-28T14:09:00;13.65;;;6.00;;
19919;SDS011;10122;50.074;19.920;2023-02-28T14:11:46;12.50;;;6.40;;
19919;SDS011;10122;50.074;19.920;2023-02-28T14:17:00;11.68;;;6.60;;
19919;SDS011;10122;50.074;19.920;2023-02-28T14:19:37;11.10;;;6.65;;
19919;SDS011;10122;50.074;19.920;2023-02-28T14:39:05;9.68;;;4.07;;
19919;SDS011;10122;50.074;19.920;2023-02-28T14:41:43;12.02;;;6.93;;
19919;SDS011;10122;50.074;19.920;2023-02-28T14:47:01;10.30;;;6.28;;
19919;SDS011;10122;50.074;19.920;2023-02-28T14:49:41;12.73;;;6.97;;
19919;SDS011;10122;50.074;19.920;2023-02-28T14:54:44;10.35;;;6.70;;
19919;SDS011;10122;50.074;19.920;2023-02-28T14:57:24;12.18;;;5.60;;
19919;SDS011;10122;50.074;19.920;2023-02-28T15:00:02;11.02;;;6.30;;
19919;SDS011;10122;50.074;19.920;2023-02-28T15:02:47;10.30;;;6.32;;
19919;SDS011;10122;50.074;19.920;2023-02-28T15:07:41;12.45;;;6.68;;
19919;SDS011;10122;50.074;19.920;2023-02-28T15:10:21;12.32;;;6.78;;
19919;SDS011;10122;50.074;19.920;2023-02-28T15:15:26;11.07;;;6.60;;
19919;SDS011;10122;50.074;19.920;2023-02-28T15:18:00;10.60;;;6.28;;
19919;SDS011;10122;50.074;19.920;2023-02-28T15:20:30;10.45;;;6.38;;
19919;SDS011;10122;50.074;19.920;2023-02-28T15:22:57;10.77;;;6.32;;
19919;SDS011;10122;50.074;19.920;2023-02-28T15:25:24;12.48;;;6.63;;
19919;SDS011;10122;50.074;19.920;2023-02-28T15:27:51;11.45;;;5.97;;
19919;SDS011;10122;50.074;19.920;2023-02-28T15:30:28;13.40;;;7.03;;
19919;SDS011;10122;50.074;19.920;2023-02-28T15:35:51;11.05;;;6.35;;
19919;SDS011;10122;50.074;19.920;2023-02-28T15:38:35;10.75;;;5.63;;
19919;SDS011;10122;50.074;19.920;2023-02-28T15:41:01;13.57;;;6.45;;
19919;SDS011;10122;50.074;19.920;2023-02-28T15:43:34;11.02;;;6.88;;
19919;SDS011;10122;50.074;19.920;2023-02-28T15:51:30;10.65;;;6.85;;
19919;SDS011;10122;50.074;19.920;2023-02-28T15:54:05;13.43;;;7.47;;
19919;SDS011;10122;50.074;19.920;2023-02-28T15:56:43;12.07;;;6.70;;
19919;SDS011;10122;50.074;19.920;2023-02-28T15:59:30;10.73;;;6.88;;
19919;SDS011;10122;50.074;19.920;2023-02-28T16:02:03;14.67;;;6.93;;
19919;SDS011;10122;50.074;19.920;2023-02-28T16:04:37;14.38;;;7.80;;
19919;SDS011;10122;50.074;19.920;2023-02-28T16:07:23;12.95;;;7.45;;
19919;SDS011;10122;50.074;19.920;2023-02-28T16:09:49;12.03;;;7.50;;
19919;SDS011;10122;50.074;19.920;2023-02-28T16:12:15;13.17;;;7.70;;
19919;SDS011;10122;50.074;19.920;2023-02-28T16:14:41;12.73;;;7.90;;
19919;SDS011;10122;50.074;19.920;2023-02-28T16:17:12;15.47;;;7.80;;
19919;SDS011;10122;50.074;19.920;2023-02-28T16:19:49;14.13;;;7.63;;
19919;SDS011;10122;50.074;19.920;2023-02-28T16:22:15;15.47;;;7.70;;
19919;SDS011;10122;50.074;19.920;2023-02-28T16:24:41;12.70;;;7.23;;
19919;SDS011;10122;50.074;19.920;2023-02-28T16:27:07;15.87;;;7.60;;
19919;SDS011;10122;50.074;19.920;2023-02-28T16:29:52;12.77;;;6.50;;
19919;SDS011;10122;50.074;19.920;2023-02-28T16:32:18;12.57;;;7.07;;
19919;SDS011;10122;50.074;19.920;2023-02-28T16:34:44;13.90;;;7.97;;
19919;SDS011;10122;50.074;19.920;2023-02-28T16:37:14;14.97;;;7.70;;
19919;SDS011;10122;50.074;19.920;2023-02-28T16:39:42;13.47;;;7.53;;
19919;SDS011;10122;50.074;19.920;2023-02-28T16:42:20;14.33;;;7.83;;
19919;SDS011;10122;50.074;19.920;2023-02-28T16:44:52;12.77;;;7.40;;
19919;SDS011;10122;50.074;19.920;2023-02-28T16:47:18;14.57;;;8.07;;
19919;SDS011;10122;50.074;19.920;2023-02-28T16:49:45;14.53;;;8.00;;
19919;SDS011;10122;50.074;19.920;2023-02-28T16:52:12;17.23;;;7.50;;
19919;SDS011;10122;50.074;19.920;2023-02-28T16:54:39;14.87;;;7.27;;
19919;SDS011;10122;50.074;19.920;2023-02-28T16:57:06;14.97;;;7.90;;
19919;SDS011;10122;50.074;19.920;2023-02-28T16:59:37;12.97;;;7.03;;
19919;SDS011;10122;50.074;19.920;2023-02-28T17:02:07;17.33;;;7.37;;
19919;SDS011;10122;50.074;19.920;2023-02-28T17:04:36;14.50;;;8.00;;
19919;SDS011;10122;50.074;19.920;2023-02-28T17:07:02;16.93;;;7.87;;
19919;SDS011;10122;50.074;19.920;2023-02-28T17:09:28;14.73;;;8.00;;
19919;SDS011;10122;50.074;19.920;2023-02-28T17:11:53;15.20;;;8.13;;
19919;SDS011;10122;50.074;19.920;2023-02-28T17:14:19;14.23;;;8.00;;
19919;SDS011;10122;50.074;19.920;2023-02-28T17:16:46;15.60;;;8.30;;
19919;SDS011;10122;50.074;19.920;2023-02-28T17:19:13;15.67;;;8.40;;
19919;SDS011;10122;50.074;19.920;2023-02-28T17:21:43;15.47;;;8.30;;